createdAt,value
2022-11-30T00:01:47.061Z,100162.53
2022-11-30T00:04:14.754Z,100161.25
2022-11-30T00:06:43.732Z,100164.88
2022-11-30T00:09:11.435Z,100150.59
2022-11-30T00:11:40.374Z,100157.25
2022-11-30T00:14:08.036Z,100158.34
2022-11-30T00:16:35.699Z,100158.50
2022-11-30T00:19:03.393Z,100151.69
2022-11-30T00:21:31.217Z,100160.44
2022-11-30T00:23:58.808Z,100156.69
2022-11-30T00:26:26.479Z,100155.03
2022-11-30T00:28:55.565Z,100157.50
2022-11-30T00:31:24.763Z,100162.06
2022-11-30T00:33:52.472Z,100158.88
2022-11-30T00:36:22.540Z,100154.75
2022-11-30T00:38:51.450Z,100148.22
2022-11-30T00:41:20.266Z,100152.78
2022-11-30T00:43:48.144Z,100154.47
2022-11-30T00:46:17.212Z,100147.66
2022-11-30T00:48:45.121Z,100151.28
2022-11-30T00:51:13.786Z,100152.97
2022-11-30T00:53:42.598Z,100150.75
2022-11-30T00:56:11.202Z,100148.66
2022-11-30T00:58:38.918Z,100148.38
2022-11-30T01:01:07.102Z,100152.25
2022-11-30T01:03:37.160Z,100147.97
2022-11-30T01:06:05.757Z,100154.91
2022-11-30T01:08:34.157Z,100155.16
2022-11-30T01:11:07.894Z,100158.06
2022-11-30T01:13:35.623Z,100166.09
2022-11-30T01:16:09.333Z,100163.47
2022-11-30T01:18:39.232Z,100165.00
2022-11-30T01:21:08.083Z,100173.03
2022-11-30T01:23:36.042Z,100171.50
2022-11-30T01:26:03.947Z,100179.69
2022-11-30T01:28:31.635Z,100177.75
2022-11-30T01:30:59.852Z,100175.81
2022-11-30T01:33:27.558Z,100172.91
2022-11-30T01:36:07.943Z,100168.88
2022-11-30T01:38:36.960Z,100173.88
2022-11-30T01:41:06.599Z,100169.72
2022-11-30T01:43:42.854Z,100177.06
2022-11-30T01:46:25.212Z,100162.53
2022-11-30T01:48:59.996Z,100169.31
2022-11-30T01:51:33.893Z,100171.25
2022-11-30T01:54:02.342Z,100174.31
2022-11-30T01:56:30.065Z,100165.84
2022-11-30T01:58:58.929Z,100166.94
2022-11-30T02:01:26.639Z,100169.72
2022-11-30T02:04:00.199Z,100158.34
2022-11-30T02:06:30.466Z,100169.16
2022-11-30T02:08:58.255Z,100171.41
2022-11-30T02:11:28.691Z,100166.81
2022-11-30T02:14:31.679Z,100178.47
2022-11-30T02:17:09.571Z,100167.22
2022-11-30T02:20:05.555Z,100172.50
2022-11-30T02:22:47.232Z,100167.63
2022-11-30T02:25:22.774Z,100171.13
2022-11-30T02:28:13.698Z,100166.97
2022-11-30T02:30:48.069Z,100176.22
2022-11-30T02:33:19.334Z,100177.75
2022-11-30T02:35:54.505Z,100174.03
2022-11-30T02:38:24.981Z,100171.78
2022-11-30T02:40:52.969Z,100174.97
2022-11-30T02:43:22.679Z,100173.44
2022-11-30T02:46:00.586Z,100170.53
2022-11-30T02:48:33.405Z,100175.13
2022-11-30T02:51:05.673Z,100174.41
2022-11-30T02:53:33.477Z,100170.56
2022-11-30T02:56:01.505Z,100172.91
2022-11-30T02:58:29.377Z,100176.38
2022-11-30T03:00:58.434Z,100173.75
2022-11-30T03:03:26.199Z,100174.97
2022-11-30T03:05:53.896Z,100172.34
2022-11-30T03:08:21.524Z,100177.19
2022-11-30T03:10:49.189Z,100177.59
2022-11-30T03:13:16.874Z,100173.59
2022-11-30T03:15:44.564Z,100178.19
2022-11-30T03:18:14.059Z,100176.22
2022-11-30T03:20:42.434Z,100182.03
2022-11-30T03:23:10.466Z,100178.56
2022-11-30T03:25:39.216Z,100184.56
2022-11-30T03:28:06.823Z,100179.97
2022-11-30T03:30:35.294Z,100179.16
2022-11-30T03:33:02.949Z,100179.81
2022-11-30T03:35:31.892Z,100194.53
2022-11-30T03:37:59.570Z,100189.69
2022-11-30T03:40:27.193Z,100193.25
2022-11-30T03:42:54.821Z,100187.44
2022-11-30T03:45:22.515Z,100190.63
2022-11-30T03:47:50.134Z,100191.19
2022-11-30T03:50:17.804Z,100193.28
2022-11-30T03:52:46.963Z,100187.19
2022-11-30T03:55:14.606Z,100190.38
2022-11-30T03:57:42.497Z,100193.81
2022-11-30T04:00:11.723Z,100194.81
2022-11-30T04:02:44.478Z,100197.72
2022-11-30T04:05:13.338Z,100195.22
2022-11-30T04:07:41.000Z,100194.38
2022-11-30T04:10:11.689Z,100198.28
2022-11-30T04:12:39.757Z,100200.75
2022-11-30T04:15:08.760Z,100199.25
2022-11-30T04:17:36.460Z,100189.69
2022-11-30T04:20:04.613Z,100193.53
2022-11-30T04:22:32.246Z,100191.88
2022-11-30T04:24:59.848Z,100190.25
2022-11-30T04:27:30.654Z,100190.22
2022-11-30T04:29:58.502Z,100185.91
2022-11-30T04:32:26.166Z,100183.44
2022-11-30T04:34:54.910Z,100195.50
2022-11-30T04:37:22.581Z,100191.19
2022-11-30T04:39:50.210Z,100187.31
2022-11-30T04:42:18.299Z,100188.28
2022-11-30T04:44:47.576Z,100182.75
2022-11-30T04:47:15.471Z,100186.22
2022-11-30T04:49:43.421Z,100187.59
2022-11-30T04:52:11.027Z,100191.06
2022-11-30T04:54:38.833Z,100195.50
2022-11-30T04:57:06.878Z,100195.22
2022-11-30T04:59:34.526Z,100203.81
2022-11-30T05:02:03.560Z,100196.31
2022-11-30T05:04:31.335Z,100198.41
2022-11-30T05:06:59.336Z,100196.19
2022-11-30T05:09:26.988Z,100202.56
2022-11-30T05:11:54.695Z,100204.53
2022-11-30T05:14:22.391Z,100208.25
2022-11-30T05:16:50.471Z,100200.63
2022-11-30T05:19:19.611Z,100197.28
2022-11-30T05:21:48.300Z,100200.63
2022-11-30T05:24:15.891Z,100198.13
2022-11-30T05:26:43.903Z,100197.44
2022-11-30T05:29:11.762Z,100200.47
2022-11-30T05:31:41.006Z,100202.44
2022-11-30T05:34:08.804Z,100204.22
2022-11-30T05:36:37.820Z,100205.63
2022-11-30T05:39:05.768Z,100208.25
2022-11-30T05:41:33.453Z,100215.44
2022-11-30T05:44:01.288Z,100216.84
2022-11-30T05:46:29.069Z,100213.09
2022-11-30T05:48:56.792Z,100210.19
2022-11-30T05:51:24.459Z,100215.88
2022-11-30T05:53:53.498Z,100211.00
2022-11-30T05:56:22.725Z,100219.34
2022-11-30T05:58:50.406Z,100220.31
2022-11-30T06:01:19.933Z,100213.66
2022-11-30T06:03:47.773Z,100211.31
2022-11-30T06:06:15.699Z,100222.69
2022-11-30T06:08:43.866Z,100216.97
2022-11-30T06:11:13.157Z,100219.19
2022-11-30T06:13:41.048Z,100223.22
2022-11-30T06:16:09.954Z,100214.47
2022-11-30T06:18:38.270Z,100226.28
2022-11-30T06:21:07.956Z,100215.44
2022-11-30T06:23:36.233Z,100222.69
2022-11-30T06:26:05.857Z,100217.13
2022-11-30T06:28:35.208Z,100215.91
2022-11-30T06:31:04.236Z,100216.44
2022-11-30T06:33:31.896Z,100216.97
2022-11-30T06:35:59.885Z,100221.81
2022-11-30T06:38:27.963Z,100219.88
2022-11-30T06:40:55.605Z,100220.16
2022-11-30T06:43:23.327Z,100218.78
2022-11-30T06:45:52.334Z,100219.22
2022-11-30T06:48:22.481Z,100231.00
2022-11-30T06:50:50.397Z,100223.22
2022-11-30T06:53:18.071Z,100222.69
2022-11-30T06:55:45.701Z,100221.44
2022-11-30T06:58:13.452Z,100220.31
2022-11-30T07:00:42.636Z,100226.66
2022-11-30T07:03:13.007Z,100226.69
2022-11-30T07:05:43.739Z,100226.00
2022-11-30T07:08:11.479Z,100229.06
2022-11-30T07:10:41.869Z,100229.34
2022-11-30T07:13:12.194Z,100232.25
2022-11-30T07:15:40.356Z,100229.75
2022-11-30T07:18:08.598Z,100233.78
2022-11-30T07:20:38.448Z,100235.03
2022-11-30T07:23:20.434Z,100240.41
2022-11-30T07:26:05.903Z,100228.50
2022-11-30T07:28:33.747Z,100228.34
2022-11-30T07:31:01.416Z,100227.25
2022-11-30T07:33:29.079Z,100232.78
2022-11-30T07:35:58.061Z,100235.84
2022-11-30T07:38:25.783Z,100234.59
2022-11-30T07:40:53.467Z,100233.63
2022-11-30T07:43:21.241Z,100230.28
2022-11-30T07:45:53.468Z,100240.69
2022-11-30T07:48:21.671Z,100241.25
2022-11-30T07:50:49.770Z,100243.31
2022-11-30T07:53:18.931Z,100247.63
2022-11-30T07:55:46.732Z,100248.59
2022-11-30T07:58:17.445Z,100244.00
2022-11-30T08:00:45.499Z,100249.69
2022-11-30T08:03:13.160Z,100253.16
2022-11-30T08:05:40.731Z,100254.31
2022-11-30T08:08:08.337Z,100255.94
2022-11-30T08:10:37.378Z,100248.47
2022-11-30T08:13:04.959Z,100252.63
2022-11-30T08:15:34.693Z,100248.75
2022-11-30T08:18:05.660Z,100256.50
2022-11-30T08:20:33.382Z,100246.25
2022-11-30T08:23:01.020Z,100252.47
2022-11-30T08:25:29.054Z,100252.34
2022-11-30T08:27:58.054Z,100254.25
2022-11-30T08:30:27.897Z,100255.81
2022-11-30T08:33:01.136Z,100259.97
2022-11-30T08:35:28.804Z,100256.66
2022-11-30T08:37:56.408Z,100258.72
2022-11-30T08:40:24.170Z,100264.84
2022-11-30T08:42:51.838Z,100261.38
2022-11-30T08:45:20.771Z,100265.09
2022-11-30T08:47:48.406Z,100264.28
2022-11-30T08:50:16.070Z,100274.81
2022-11-30T08:52:43.701Z,100274.66
2022-11-30T08:55:11.572Z,100268.44
2022-11-30T08:57:39.346Z,100274.38
2022-11-30T09:00:09.098Z,100278.69
2022-11-30T09:02:39.515Z,100275.09
2022-11-30T09:05:07.637Z,100275.50
2022-11-30T09:07:35.400Z,100277.03
2022-11-30T09:10:03.135Z,100281.88
2022-11-30T09:12:30.816Z,100291.72
2022-11-30T09:14:58.992Z,100296.31
2022-11-30T09:17:27.332Z,100294.25
2022-11-30T09:19:56.325Z,100286.28
2022-11-30T09:22:24.038Z,100293.75
2022-11-30T09:24:51.823Z,100284.75
2022-11-30T09:27:19.511Z,100290.59
2022-11-30T09:29:47.307Z,100298.06
2022-11-30T09:32:15.006Z,100291.69
2022-11-30T09:34:44.014Z,100297.25
2022-11-30T09:37:12.938Z,100293.88
2022-11-30T09:39:40.561Z,100298.06
2022-11-30T09:42:25.328Z,100298.75
2022-11-30T09:45:01.330Z,100302.38
2022-11-30T09:47:45.652Z,100297.09
2022-11-30T09:50:16.187Z,100303.34
2022-11-30T09:52:49.728Z,100294.84
2022-11-30T09:55:26.633Z,100297.81
2022-11-30T09:57:56.692Z,100290.00
2022-11-30T10:00:25.972Z,100292.75
2022-11-30T10:02:55.528Z,100290.97
2022-11-30T10:05:25.936Z,100300.44
2022-11-30T10:08:19.647Z,100297.00
2022-11-30T10:10:56.099Z,100294.44
2022-11-30T10:13:41.215Z,100297.81
2022-11-30T10:16:21.636Z,100300.59
2022-11-30T10:18:57.544Z,100292.97
2022-11-30T10:21:40.684Z,100300.72
2022-11-30T10:24:21.720Z,100285.56
2022-11-30T10:26:56.467Z,100290.34
2022-11-30T10:29:31.755Z,100303.38
2022-11-30T10:32:01.500Z,100294.78
2022-11-30T10:34:34.427Z,100293.66
2022-11-30T10:37:06.989Z,100288.66
2022-11-30T10:39:44.112Z,100288.81
2022-11-30T10:42:17.296Z,100281.97
2022-11-30T10:44:53.571Z,100284.47
2022-11-30T10:47:27.197Z,100276.94
2022-11-30T10:49:54.930Z,100278.09
2022-11-30T10:52:26.774Z,100273.56
2022-11-30T10:55:04.176Z,100270.41
2022-11-30T10:57:33.466Z,100264.78
2022-11-30T11:00:05.908Z,100268.72
2022-11-30T11:02:42.246Z,100258.84
2022-11-30T11:05:19.656Z,100259.59
2022-11-30T11:07:54.976Z,100248.25
2022-11-30T11:10:30.436Z,100253.69
2022-11-30T11:12:59.128Z,100258.66
2022-11-30T11:15:28.051Z,100254.19
2022-11-30T11:18:20.408Z,100256.81
2022-11-30T11:20:48.138Z,100253.06
2022-11-30T11:23:23.859Z,100251.47
2022-11-30T11:25:54.158Z,100249.88
2022-11-30T11:28:24.404Z,100252.69
2022-11-30T11:30:55.652Z,100251.56
2022-11-30T11:33:25.500Z,100254.53
2022-11-30T11:35:55.387Z,100253.59
2022-11-30T11:38:28.589Z,100251.00
2022-11-30T11:41:01.284Z,100252.06
2022-11-30T11:43:31.679Z,100250.88
2022-11-30T11:46:11.179Z,100256.44
2022-11-30T11:48:41.853Z,100252.16
2022-11-30T11:51:11.297Z,100260.97
2022-11-30T11:53:50.012Z,100256.88
2022-11-30T11:56:26.963Z,100257.09
2022-11-30T11:58:59.880Z,100258.06
2022-11-30T12:01:51.677Z,100249.19
2022-11-30T12:04:40.890Z,100245.47
2022-11-30T12:07:18.433Z,100254.38
2022-11-30T12:09:58.534Z,100255.06
2022-11-30T12:12:28.603Z,100249.03
2022-11-30T12:14:57.359Z,100249.59
2022-11-30T12:17:39.748Z,100251.72
2022-11-30T12:20:18.464Z,100247.75
2022-11-30T12:23:01.859Z,100253.09
2022-11-30T12:25:33.843Z,100252.22
2022-11-30T12:28:18.071Z,100251.34
2022-11-30T12:30:55.910Z,100250.03
2022-11-30T12:33:35.167Z,100247.53
2022-11-30T12:36:11.466Z,100247.72
2022-11-30T12:38:48.206Z,100237.97
2022-11-30T12:41:32.435Z,100246.59
2022-11-30T12:44:16.017Z,100245.75
2022-11-30T12:46:54.464Z,100247.69
2022-11-30T12:49:42.199Z,100246.66
2022-11-30T12:52:25.276Z,100245.06
2022-11-30T12:54:59.624Z,100250.09
2022-11-30T12:57:31.558Z,100247.03
2022-11-30T13:00:09.716Z,100251.53
2022-11-30T13:02:54.528Z,100254.41
2022-11-30T13:05:27.209Z,100251.28
2022-11-30T13:08:00.931Z,100254.47
2022-11-30T13:10:33.587Z,100257.22
2022-11-30T13:13:04.290Z,100263.88
2022-11-30T13:15:35.327Z,100259.56
2022-11-30T13:18:04.572Z,100259.81
2022-11-30T13:20:39.736Z,100252.00
2022-11-30T13:23:14.884Z,100255.16
2022-11-30T13:29:08.488Z,100257.47
2022-11-30T13:31:42.511Z,100264.13
2022-11-30T13:34:25.495Z,100265.44
2022-11-30T13:37:01.575Z,100256.34
2022-11-30T13:39:31.385Z,100264.84
2022-11-30T13:42:32.969Z,100261.41
2022-11-30T13:45:19.661Z,100261.06
2022-11-30T13:47:51.027Z,100268.34
2022-11-30T13:50:26.265Z,100255.81
2022-11-30T13:53:22.693Z,100262.31
2022-11-30T13:55:57.911Z,100263.50
2022-11-30T13:58:26.779Z,100261.56
2022-11-30T14:01:26.828Z,100265.88
2022-11-30T14:04:31.473Z,100264.69
2022-11-30T14:07:00.687Z,100268.06
2022-11-30T14:10:08.512Z,100253.63
2022-11-30T14:13:01.311Z,100263.69
2022-11-30T14:15:54.297Z,100263.72
2022-11-30T14:18:29.226Z,100269.19
2022-11-30T14:21:02.659Z,100274.16
2022-11-30T14:23:35.403Z,100270.75
2022-11-30T14:26:10.680Z,100271.44
2022-11-30T14:28:44.596Z,100274.22
2022-11-30T14:31:19.508Z,100274.19
2022-11-30T14:33:52.250Z,100266.94
2022-11-30T14:36:22.905Z,100274.53
2022-11-30T14:38:50.880Z,100273.03
2022-11-30T14:41:22.021Z,100275.91
2022-11-30T14:44:05.683Z,100273.88
2022-11-30T14:46:35.836Z,100270.72
2022-11-30T14:49:22.298Z,100270.00
2022-11-30T14:51:53.910Z,100272.94
2022-11-30T14:54:45.197Z,100271.84
2022-11-30T14:57:21.456Z,100270.88
2022-11-30T14:59:53.987Z,100270.50
2022-11-30T15:02:27.527Z,100270.34
2022-11-30T15:04:56.278Z,100275.06
2022-11-30T15:07:26.475Z,100266.44
2022-11-30T15:10:02.575Z,100271.44
2022-11-30T15:12:30.816Z,100265.50
2022-11-30T15:15:07.477Z,100267.16
2022-11-30T15:17:47.396Z,100265.47
2022-11-30T15:20:20.709Z,100270.75
2022-11-30T15:22:49.822Z,100280.91
2022-11-30T15:25:17.823Z,100268.94
2022-11-30T15:27:45.980Z,100275.78
2022-11-30T15:30:17.664Z,100271.19
2022-11-30T15:32:48.018Z,100269.22
2022-11-30T15:35:21.381Z,100271.16
2022-11-30T15:37:50.865Z,100270.31
2022-11-30T15:40:31.558Z,100282.84
2022-11-30T15:43:00.371Z,100282.03
2022-11-30T15:45:30.109Z,100279.63
2022-11-30T15:47:59.712Z,100282.22
2022-11-30T15:50:37.157Z,100280.31
2022-11-30T15:53:25.173Z,100283.06
2022-11-30T15:55:54.309Z,100280.44
2022-11-30T15:58:27.809Z,100288.09
2022-11-30T16:01:11.018Z,100293.38
2022-11-30T16:04:04.227Z,100288.72
2022-11-30T16:06:34.977Z,100293.81
2022-11-30T16:09:08.281Z,100291.06
2022-11-30T16:11:36.558Z,100293.13
2022-11-30T16:14:04.198Z,100298.25
2022-11-30T16:16:33.907Z,100290.59
2022-11-30T16:19:01.659Z,100296.13
2022-11-30T16:21:29.374Z,100295.16
2022-11-30T16:23:57.058Z,100300.28
2022-11-30T16:26:50.156Z,100309.50
2022-11-30T16:29:13.715Z,100298.91
2022-11-30T16:31:41.390Z,100307.69
2022-11-30T16:34:12.233Z,100307.94
2022-11-30T16:36:39.851Z,100307.53
2022-11-30T16:39:11.773Z,100311.28
2022-11-30T16:41:40.741Z,100312.94
2022-11-30T16:44:14.091Z,100310.28
2022-11-30T16:46:41.868Z,100313.88
2022-11-30T16:49:09.853Z,100318.63
2022-11-30T16:51:37.569Z,100315.81
2022-11-30T16:54:05.531Z,100319.47
2022-11-30T16:56:33.499Z,100321.66
2022-11-30T16:59:02.510Z,100322.69
2022-11-30T17:01:36.176Z,100324.34
2022-11-30T17:04:12.888Z,100328.09
2022-11-30T17:06:40.528Z,100325.00
2022-11-30T17:09:12.697Z,100324.03
2022-11-30T17:11:40.892Z,100326.38
2022-11-30T17:14:13.069Z,100325.53
2022-11-30T17:16:40.816Z,100327.78
2022-11-30T17:19:08.592Z,100339.88
2022-11-30T17:21:38.784Z,100337.50
2022-11-30T17:24:08.418Z,100340.59
2022-11-30T17:26:36.076Z,100338.63
2022-11-30T17:29:04.299Z,100337.09
2022-11-30T17:31:34.261Z,100341.81
2022-11-30T17:34:01.917Z,100341.41
2022-11-30T17:36:29.935Z,100348.34
2022-11-30T17:38:57.607Z,100350.16
2022-11-30T17:41:25.236Z,100345.25
2022-11-30T17:43:53.021Z,100351.09
2022-11-30T17:46:22.299Z,100350.00
2022-11-30T17:48:51.759Z,100348.34
2022-11-30T17:51:19.492Z,100352.09
2022-11-30T17:53:47.168Z,100349.56
2022-11-30T17:56:17.045Z,100353.22
2022-11-30T17:58:46.104Z,100355.28
2022-11-30T18:01:18.552Z,100356.25
2022-11-30T18:03:46.538Z,100356.13
2022-11-30T18:06:16.005Z,100365.00
2022-11-30T18:08:43.804Z,100357.88
2022-11-30T18:11:13.345Z,100351.25
2022-11-30T18:13:41.532Z,100360.00
2022-11-30T18:16:11.943Z,100359.44
2022-11-30T18:18:44.381Z,100356.81
2022-11-30T18:21:16.847Z,100357.91
2022-11-30T18:23:44.776Z,100359.53
2022-11-30T18:26:14.019Z,100367.50
2022-11-30T18:28:41.934Z,100372.47
2022-11-30T18:31:10.103Z,100364.84
2022-11-30T18:33:38.739Z,100374.72
2022-11-30T18:36:33.137Z,100372.91
2022-11-30T18:39:00.933Z,100378.00
2022-11-30T18:41:30.285Z,100376.94
2022-11-30T18:43:57.906Z,100375.28
2022-11-30T18:46:26.344Z,100376.66
2022-11-30T18:48:55.286Z,100378.31
2022-11-30T18:51:25.241Z,100371.13
2022-11-30T18:53:58.583Z,100377.47
2022-11-30T18:56:27.718Z,100382.50
2022-11-30T18:58:56.823Z,100378.63
2022-11-30T19:01:25.559Z,100378.19
2022-11-30T19:03:54.552Z,100375.66
2022-11-30T19:06:22.480Z,100377.75
2022-11-30T19:08:50.421Z,100377.34
2022-11-30T19:11:19.643Z,100389.00
2022-11-30T19:13:47.476Z,100387.91
2022-11-30T19:16:17.094Z,100379.16
2022-11-30T19:18:45.989Z,100385.13
2022-11-30T19:21:16.798Z,100388.59
2022-11-30T19:23:45.389Z,100386.09
2022-11-30T19:26:14.319Z,100381.94
2022-11-30T19:28:44.619Z,100391.91
2022-11-30T19:31:14.498Z,100394.72
2022-11-30T19:33:44.547Z,100399.97
2022-11-30T19:36:14.742Z,100399.69
2022-11-30T19:38:42.820Z,100404.13
2022-11-30T19:41:12.414Z,100404.09
2022-11-30T19:43:40.778Z,100407.31
2022-11-30T19:46:11.753Z,100410.22
2022-11-30T19:48:39.920Z,100406.34
2022-11-30T19:51:13.264Z,100414.09
2022-11-30T19:53:43.766Z,100410.22
2022-11-30T19:56:14.318Z,100416.63
2022-11-30T19:58:42.268Z,100418.84
2022-11-30T20:01:14.649Z,100414.78
2022-11-30T20:03:44.116Z,100424.78
2022-11-30T20:06:12.568Z,100425.09
2022-11-30T20:08:40.539Z,100423.00
2022-11-30T20:11:08.730Z,100432.44
2022-11-30T20:13:36.806Z,100425.88
2022-11-30T20:16:09.175Z,100428.78
2022-11-30T20:18:44.202Z,100434.59
2022-11-30T20:21:15.967Z,100432.50
2022-11-30T20:23:45.338Z,100428.66
2022-11-30T20:26:15.057Z,100434.41
2022-11-30T20:28:43.164Z,100435.75
2022-11-30T20:31:12.525Z,100437.13
2022-11-30T20:33:41.883Z,100429.09
2022-11-30T20:36:11.501Z,100442.28
2022-11-30T20:38:39.900Z,100440.66
2022-11-30T20:41:11.766Z,100431.13
2022-11-30T20:43:39.802Z,100441.41
2022-11-30T20:46:14.522Z,100438.06
2022-11-30T20:48:43.926Z,100432.13
2022-11-30T20:54:00.943Z,100442.72
2022-11-30T20:56:28.777Z,100436.16
2022-11-30T20:58:56.801Z,100441.56
2022-11-30T21:01:24.722Z,100446.03
2022-11-30T21:03:53.956Z,100438.00
2022-11-30T21:06:21.625Z,100437.16
2022-11-30T21:08:49.261Z,100443.81
2022-11-30T21:11:19.195Z,100440.47
2022-11-30T21:13:49.017Z,100445.19
2022-11-30T21:16:22.534Z,100445.88
2022-11-30T21:18:54.944Z,100451.84
2022-11-30T21:21:24.579Z,100447.91
2022-11-30T21:23:53.012Z,100444.59
2022-11-30T21:26:23.529Z,100451.78
2022-11-30T21:28:53.092Z,100448.56
2022-11-30T21:31:21.527Z,100450.13
2022-11-30T21:33:53.229Z,100456.00
2022-11-30T21:36:23.454Z,100449.34
2022-11-30T21:38:58.302Z,100449.88
2022-11-30T21:41:32.008Z,100453.47
2022-11-30T21:43:59.649Z,100461.63
2022-11-30T21:46:27.248Z,100451.00
2022-11-30T21:48:54.884Z,100454.97
2022-11-30T21:51:25.507Z,100452.63
2022-11-30T21:53:56.406Z,100453.28
2022-11-30T21:56:26.367Z,100449.50
2022-11-30T21:58:54.775Z,100450.47
2022-11-30T22:01:25.099Z,100454.84
2022-11-30T22:03:53.959Z,100448.63
2022-11-30T22:06:22.503Z,100452.38
2022-11-30T22:08:51.545Z,100446.78
2022-11-30T22:11:21.199Z,100460.59
2022-11-30T22:13:51.028Z,100458.56
2022-11-30T22:16:19.948Z,100458.53
2022-11-30T22:18:48.574Z,100456.13
2022-11-30T22:21:18.260Z,100453.91
2022-11-30T22:23:47.454Z,100464.78
2022-11-30T22:26:18.477Z,100462.66
2022-11-30T22:28:48.461Z,100460.47
2022-11-30T22:31:18.814Z,100455.84
2022-11-30T22:33:46.754Z,100454.06
2022-11-30T22:36:16.601Z,100452.34
2022-11-30T22:38:45.089Z,100457.91
2022-11-30T22:41:14.561Z,100459.28
2022-11-30T22:43:43.872Z,100455.75
2022-11-30T22:46:13.556Z,100455.22
2022-11-30T22:48:42.336Z,100454.13
2022-11-30T22:51:12.418Z,100452.66
2022-11-30T22:53:41.034Z,100449.94
2022-11-30T22:56:11.377Z,100452.50
2022-11-30T22:58:39.287Z,100453.38
2022-11-30T23:01:12.289Z,100460.72
2022-11-30T23:03:41.469Z,100460.81
2022-11-30T23:06:10.108Z,100457.03
2022-11-30T23:08:38.149Z,100459.56
2022-11-30T23:11:08.210Z,100466.66
2022-11-30T23:13:36.740Z,100459.09
2022-11-30T23:16:05.119Z,100462.31
2022-11-30T23:18:38.596Z,100459.53
2022-11-30T23:21:07.948Z,100460.03
2022-11-30T23:23:35.711Z,100455.34
2022-11-30T23:26:11.095Z,100459.53
2022-11-30T23:28:40.898Z,100456.25
2022-11-30T23:31:10.284Z,100453.63
2022-11-30T23:33:59.409Z,100447.72
2022-11-30T23:36:27.192Z,100449.31
2022-11-30T23:38:57.510Z,100450.84
2022-11-30T23:41:25.724Z,100446.53
2022-11-30T23:43:53.800Z,100445.25
2022-11-30T23:46:21.596Z,100446.94
2022-11-30T23:48:49.373Z,100451.19
2022-11-30T23:51:19.474Z,100447.50
2022-11-30T23:53:48.662Z,100449.06
2022-11-30T23:56:19.716Z,100450.00
2022-11-30T23:58:48.561Z,100446.59
